Terminal Aerodrome Forecast
Issued by NWS

Home | Current Version | Previous Version | Text Only | Print | Product List | Glossary On
Versions: 1 2 3 4 5 6 7 8 9 10 11 12 13 14 15 16
793
FTUS42 KMLB 232346 CCA
TAFSUA
TAF COR
KSUA 232346Z 2400/2424 08010KT P6SM VCSH BKN015 BKN050
     FM240200 12009KT P6SM SCT025 BKN150
     FM240900 VRB03KT P6SM BKN010
     FM241400 27009KT P6SM SCT030
      TEMPO 2415/2418 BKN035
     FM241800 27016G24KT P6SM SCT040=

USA.gov is the U.S. government's official web portal to all federal, state and local government web resources and services.